sensor_id;sensor_type;location;lat;lon;timestamp;temperature;humidity
2300;DHT22;1158;48.750;9.078;2022-08-21T00:02:27;12.60;99.90
2300;DHT22;1158;48.750;9.078;2022-08-21T00:04:54;12.50;99.90
2300;DHT22;1158;48.750;9.078;2022-08-21T00:07:21;12.40;99.90
2300;DHT22;1158;48.750;9.078;2022-08-21T00:09:48;12.40;99.90
2300;DHT22;1158;48.750;9.078;2022-08-21T00:12:15;12.40;99.90
2300;DHT22;1158;48.750;9.078;2022-08-21T00:14:41;12.40;99.90
2300;DHT22;1158;48.750;9.078;2022-08-21T00:17:08;12.30;99.90
2300;DHT22;1158;48.750;9.078;2022-08-21T00:19:36;12.30;99.90
2300;DHT22;1158;48.750;9.078;2022-08-21T00:22:03;12.30;99.90
2300;DHT22;1158;48.750;9.078;2022-08-21T00:24:30;12.20;99.90
2300;DHT22;1158;48.750;9.078;2022-08-21T00:26:56;12.10;99.90
2300;DHT22;1158;48.750;9.078;2022-08-21T00:29:24;12.10;99.90
2300;DHT22;1158;48.750;9.078;2022-08-21T00:31:50;12.10;99.90
2300;DHT22;1158;48.750;9.078;2022-08-21T00:34:17;12.00;99.90
2300;DHT22;1158;48.750;9.078;2022-08-21T00:36:45;12.00;99.90
2300;DHT22;1158;48.750;9.078;2022-08-21T00:39:12;12.00;99.90
2300;DHT22;1158;48.750;9.078;2022-08-21T00:41:39;11.90;99.90
2300;DHT22;1158;48.750;9.078;2022-08-21T00:44:07;11.80;99.90
2300;DHT22;1158;48.750;9.078;2022-08-21T00:46:35;11.80;99.90
2300;DHT22;1158;48.750;9.078;2022-08-21T00:49:03;11.80;99.90
2300;DHT22;1158;48.750;9.078;2022-08-21T00:51:36;11.70;99.90
2300;DHT22;1158;48.750;9.078;2022-08-21T00:54:06;11.70;99.90
2300;DHT22;1158;48.750;9.078;2022-08-21T00:56:33;11.60;99.90
2300;DHT22;1158;48.750;9.078;2022-08-21T00:59:01;11.60;99.90
2300;DHT22;1158;48.750;9.078;2022-08-21T01:01:29;11.60;99.90
2300;DHT22;1158;48.750;9.078;2022-08-21T01:03:55;11.60;99.90
2300;DHT22;1158;48.750;9.078;2022-08-21T01:06:22;11.50;99.90
2300;DHT22;1158;48.750;9.078;2022-08-21T01:08:49;11.60;99.90
2300;DHT22;1158;48.750;9.078;2022-08-21T01:11:18;11.50;99.90
2300;DHT22;1158;48.750;9.078;2022-08-21T01:13:45;11.50;99.90
2300;DHT22;1158;48.750;9.078;2022-08-21T01:16:15;11.40;99.90
2300;DHT22;1158;48.750;9.078;2022-08-21T01:18:44;11.40;99.90
2300;DHT22;1158;48.750;9.078;2022-08-21T01:21:15;11.40;99.90
2300;DHT22;1158;48.750;9.078;2022-08-21T01:23:45;11.40;99.90
2300;DHT22;1158;48.750;9.078;2022-08-21T01:26:13;11.40;99.90
2300;DHT22;1158;48.750;9.078;2022-08-21T01:28:44;11.60;99.90
2300;DHT22;1158;48.750;9.078;2022-08-21T01:31:13;11.60;99.90
2300;DHT22;1158;48.750;9.078;2022-08-21T01:33:41;11.50;99.90
2300;DHT22;1158;48.750;9.078;2022-08-21T01:36:08;11.40;99.90
2300;DHT22;1158;48.750;9.078;2022-08-21T01:38:36;11.40;99.90
2300;DHT22;1158;48.750;9.078;2022-08-21T01:41:02;11.30;99.90
2300;DHT22;1158;48.750;9.078;2022-08-21T01:43:29;11.30;99.90
2300;DHT22;1158;48.750;9.078;2022-08-21T01:45:56;11.30;99.90
2300;DHT22;1158;48.750;9.078;2022-08-21T01:48:22;11.20;99.90
2300;DHT22;1158;48.750;9.078;2022-08-21T01:50:49;11.20;99.90
2300;DHT22;1158;48.750;9.078;2022-08-21T01:53:16;11.20;99.90
2300;DHT22;1158;48.750;9.078;2022-08-21T01:55:44;11.10;99.90
2300;DHT22;1158;48.750;9.078;2022-08-21T01:58:11;11.10;99.90
2300;DHT22;1158;48.750;9.078;2022-08-21T02:00:37;11.10;99.90
2300;DHT22;1158;48.750;9.078;2022-08-21T02:03:04;11.00;99.90
2300;DHT22;1158;48.750;9.078;2022-08-21T02:05:31;11.00;99.90
2300;DHT22;1158;48.750;9.078;2022-08-21T02:07:58;10.90;99.90
2300;DHT22;1158;48.750;9.078;2022-08-21T02:10:28;10.90;99.90
2300;DHT22;1158;48.750;9.078;2022-08-21T02:12:58;10.90;99.90
2300;DHT22;1158;48.750;9.078;2022-08-21T02:15:25;10.90;99.90
2300;DHT22;1158;48.750;9.078;2022-08-21T02:17:54;10.90;99.90
2300;DHT22;1158;48.750;9.078;2022-08-21T02:20:23;10.80;99.90
2300;DHT22;1158;48.750;9.078;2022-08-21T02:22:50;10.70;99.90
2300;DHT22;1158;48.750;9.078;2022-08-21T02:25:18;10.70;99.90
2300;DHT22;1158;48.750;9.078;2022-08-21T02:27:46;10.70;99.90
2300;DHT22;1158;48.750;9.078;2022-08-21T02:30:17;10.70;99.90
2300;DHT22;1158;48.750;9.078;2022-08-21T02:32:44;10.70;99.90
2300;DHT22;1158;48.750;9.078;2022-08-21T02:35:12;10.70;99.90
2300;DHT22;1158;48.750;9.078;2022-08-21T02:37:49;10.70;99.90
2300;DHT22;1158;48.750;9.078;2022-08-21T02:40:16;10.60;99.90
2300;DHT22;1158;48.750;9.078;2022-08-21T02:42:43;10.60;99.90
2300;DHT22;1158;48.750;9.078;2022-08-21T02:45:11;10.50;99.90
2300;DHT22;1158;48.750;9.078;2022-08-21T02:47:39;10.50;99.90
2300;DHT22;1158;48.750;9.078;2022-08-21T02:50:07;10.50;99.90
2300;DHT22;1158;48.750;9.078;2022-08-21T02:52:34;10.50;99.90
2300;DHT22;1158;48.750;9.078;2022-08-21T02:55:02;10.50;99.90
2300;DHT22;1158;48.750;9.078;2022-08-21T02:57:28;10.50;99.90
2300;DHT22;1158;48.750;9.078;2022-08-21T02:59:57;10.50;99.90
2300;DHT22;1158;48.750;9.078;2022-08-21T03:02:24;10.40;99.90
2300;DHT22;1158;48.750;9.078;2022-08-21T03:04:52;10.40;99.90
2300;DHT22;1158;48.750;9.078;2022-08-21T03:07:19;10.40;99.90
2300;DHT22;1158;48.750;9.078;2022-08-21T03:09:45;10.30;99.90
2300;DHT22;1158;48.750;9.078;2022-08-21T03:12:12;10.30;99.90
2300;DHT22;1158;48.750;9.078;2022-08-21T03:14:39;10.30;99.90
2300;DHT22;1158;48.750;9.078;2022-08-21T03:17:05;10.20;99.90
2300;DHT22;1158;48.750;9.078;2022-08-21T03:19:32;10.20;99.90
2300;DHT22;1158;48.750;9.078;2022-08-21T03:22:00;10.20;99.90
2300;DHT22;1158;48.750;9.078;2022-08-21T03:24:27;10.20;99.90
2300;DHT22;1158;48.750;9.078;2022-08-21T03:26:54;10.20;99.90
2300;DHT22;1158;48.750;9.078;2022-08-21T03:29:21;10.10;99.90
2300;DHT22;1158;48.750;9.078;2022-08-21T03:31:48;10.10;99.90
2300;DHT22;1158;48.750;9.078;2022-08-21T03:34:14;10.00;99.90
2300;DHT22;1158;48.750;9.078;2022-08-21T03:36:41;10.00;99.90
2300;DHT22;1158;48.750;9.078;2022-08-21T03:39:10;9.90;99.90
2300;DHT22;1158;48.750;9.078;2022-08-21T03:41:36;9.90;99.90
2300;DHT22;1158;48.750;9.078;2022-08-21T03:44:03;9.80;99.90
2300;DHT22;1158;48.750;9.078;2022-08-21T03:46:30;9.80;99.90
2300;DHT22;1158;48.750;9.078;2022-08-21T03:48:57;9.80;99.90
2300;DHT22;1158;48.750;9.078;2022-08-21T03:51:23;9.80;99.90
2300;DHT22;1158;48.750;9.078;2022-08-21T03:53:50;9.90;99.90
2300;DHT22;1158;48.750;9.078;2022-08-21T03:56:18;10.00;99.90
2300;DHT22;1158;48.750;9.078;2022-08-21T03:58:45;9.90;99.90
2300;DHT22;1158;48.750;9.078;2022-08-21T04:01:11;10.00;99.90
2300;DHT22;1158;48.750;9.078;2022-08-21T04:03:38;9.90;99.90
2300;DHT22;1158;48.750;9.078;2022-08-21T04:06:06;9.80;99.90
2300;DHT22;1158;48.750;9.078;2022-08-21T04:08:33;9.80;99.90
2300;DHT22;1158;48.750;9.078;2022-08-21T04:11:00;9.80;99.90
2300;DHT22;1158;48.750;9.078;2022-08-21T04:13:29;9.80;99.90
2300;DHT22;1158;48.750;9.078;2022-08-21T04:15:55;9.70;99.90
2300;DHT22;1158;48.750;9.078;2022-08-21T04:18:23;9.70;99.90
2300;DHT22;1158;48.750;9.078;2022-08-21T04:20:51;9.70;99.90
2300;DHT22;1158;48.750;9.078;2022-08-21T04:23:20;9.70;99.90
2300;DHT22;1158;48.750;9.078;2022-08-21T04:25:47;9.60;99.90
2300;DHT22;1158;48.750;9.078;2022-08-21T04:28:14;9.50;99.90
2300;DHT22;1158;48.750;9.078;2022-08-21T04:30:42;9.50;99.90
2300;DHT22;1158;48.750;9.078;2022-08-21T04:33:08;9.40;99.90
2300;DHT22;1158;48.750;9.078;2022-08-21T04:35:35;9.40;99.90
2300;DHT22;1158;48.750;9.078;2022-08-21T04:38:02;9.40;99.90
2300;DHT22;1158;48.750;9.078;2022-08-21T04:40:28;9.40;99.90
2300;DHT22;1158;48.750;9.078;2022-08-21T04:42:56;9.40;99.90
2300;DHT22;1158;48.750;9.078;2022-08-21T04:45:27;9.40;99.90
2300;DHT22;1158;48.750;9.078;2022-08-21T04:47:58;9.50;99.90
2300;DHT22;1158;48.750;9.078;2022-08-21T04:50:29;9.50;99.90
2300;DHT22;1158;48.750;9.078;2022-08-21T04:52:58;9.60;99.90
2300;DHT22;1158;48.750;9.078;2022-08-21T04:55:26;9.60;99.90
2300;DHT22;1158;48.750;9.078;2022-08-21T04:57:54;9.70;99.90
2300;DHT22;1158;48.750;9.078;2022-08-21T05:00:23;9.70;99.90
2300;DHT22;1158;48.750;9.078;2022-08-21T05:02:51;9.80;99.90
2300;DHT22;1158;48.750;9.078;2022-08-21T05:05:23;9.80;99.90
2300;DHT22;1158;48.750;9.078;2022-08-21T05:07:50;9.90;99.90
2300;DHT22;1158;48.750;9.078;2022-08-21T05:10:18;10.00;99.90
2300;DHT22;1158;48.750;9.078;2022-08-21T05:12:45;10.00;99.90
2300;DHT22;1158;48.750;9.078;2022-08-21T05:15:12;10.10;99.90
2300;DHT22;1158;48.750;9.078;2022-08-21T05:17:39;10.20;99.90
2300;DHT22;1158;48.750;9.078;2022-08-21T05:20:06;10.30;99.90
2300;DHT22;1158;48.750;9.078;2022-08-21T05:22:34;10.40;99.90
2300;DHT22;1158;48.750;9.078;2022-08-21T05:25:01;10.50;99.90
2300;DHT22;1158;48.750;9.078;2022-08-21T05:27:28;10.60;99.90
2300;DHT22;1158;48.750;9.078;2022-08-21T05:29:55;10.80;99.90
2300;DHT22;1158;48.750;9.078;2022-08-21T05:32:22;11.00;99.90
2300;DHT22;1158;48.750;9.078;2022-08-21T05:34:49;12.10;99.90
2300;DHT22;1158;48.750;9.078;2022-08-21T05:37:16;13.40;99.90
2300;DHT22;1158;48.750;9.078;2022-08-21T05:39:45;14.90;99.90
2300;DHT22;1158;48.750;9.078;2022-08-21T05:42:11;16.30;99.90
2300;DHT22;1158;48.750;9.078;2022-08-21T05:44:38;17.20;99.90
2300;DHT22;1158;48.750;9.078;2022-08-21T05:47:06;18.10;99.90
2300;DHT22;1158;48.750;9.078;2022-08-21T05:49:34;18.70;99.90
2300;DHT22;1158;48.750;9.078;2022-08-21T05:52:01;19.20;99.90
2300;DHT22;1158;48.750;9.078;2022-08-21T05:54:28;19.60;99.90
2300;DHT22;1158;48.750;9.078;2022-08-21T05:56:56;20.30;99.90
2300;DHT22;1158;48.750;9.078;2022-08-21T05:59:23;20.80;99.90
2300;DHT22;1158;48.750;9.078;2022-08-21T06:01:50;21.00;99.90
2300;DHT22;1158;48.750;9.078;2022-08-21T06:04:18;21.90;99.90
2300;DHT22;1158;48.750;9.078;2022-08-21T06:06:45;22.70;99.90
2300;DHT22;1158;48.750;9.078;2022-08-21T06:09:12;23.20;99.90
2300;DHT22;1158;48.750;9.078;2022-08-21T06:11:39;23.40;99.90
2300;DHT22;1158;48.750;9.078;2022-08-21T06:14:07;23.90;99.90
2300;DHT22;1158;48.750;9.078;2022-08-21T06:16:34;24.00;99.90
2300;DHT22;1158;48.750;9.078;2022-08-21T06:19:00;24.20;99.90
2300;DHT22;1158;48.750;9.078;2022-08-21T06:21:27;24.50;99.90
2300;DHT22;1158;48.750;9.078;2022-08-21T06:23:54;25.00;99.90
2300;DHT22;1158;48.750;9.078;2022-08-21T06:26:21;25.60;99.90
2300;DHT22;1158;48.750;9.078;2022-08-21T06:28:49;25.70;99.90
2300;DHT22;1158;48.750;9.078;2022-08-21T06:31:19;25.80;99.90
2300;DHT22;1158;48.750;9.078;2022-08-21T06:33:46;26.00;99.90
2300;DHT22;1158;48.750;9.078;2022-08-21T06:36:13;26.10;99.70
2300;DHT22;1158;48.750;9.078;2022-08-21T06:38:41;26.20;99.60
2300;DHT22;1158;48.750;9.078;2022-08-21T06:41:08;26.70;98.90
2300;DHT22;1158;48.750;9.078;2022-08-21T06:43:35;27.60;97.70
2300;DHT22;1158;48.750;9.078;2022-08-21T06:46:01;27.50;97.10
2300;DHT22;1158;48.750;9.078;2022-08-21T06:48:30;27.10;97.30
2300;DHT22;1158;48.750;9.078;2022-08-21T06:50:58;27.40;95.20
2300;DHT22;1158;48.750;9.078;2022-08-21T06:53:26;26.90;93.90
2300;DHT22;1158;48.750;9.078;2022-08-21T06:55:53;26.50;94.30
2300;DHT22;1158;48.750;9.078;2022-08-21T06:58:19;27.30;94.80
2300;DHT22;1158;48.750;9.078;2022-08-21T07:00:49;27.50;93.40
2300;DHT22;1158;48.750;9.078;2022-08-21T07:03:19;27.80;93.10
2300;DHT22;1158;48.750;9.078;2022-08-21T07:05:48;27.60;93.40
2300;DHT22;1158;48.750;9.078;2022-08-21T07:08:15;26.60;93.90
2300;DHT22;1158;48.750;9.078;2022-08-21T07:10:43;26.70;93.60
2300;DHT22;1158;48.750;9.078;2022-08-21T07:13:10;26.80;93.20
2300;DHT22;1158;48.750;9.078;2022-08-21T07:15:36;26.20;93.00
2300;DHT22;1158;48.750;9.078;2022-08-21T07:18:03;26.80;92.80
2300;DHT22;1158;48.750;9.078;2022-08-21T07:20:30;26.70;92.80
2300;DHT22;1158;48.750;9.078;2022-08-21T07:23:01;26.10;94.10
2300;DHT22;1158;48.750;9.078;2022-08-21T07:25:29;27.70;92.80
2300;DHT22;1158;48.750;9.078;2022-08-21T07:27:56;28.50;91.80
2300;DHT22;1158;48.750;9.078;2022-08-21T07:30:23;28.30;90.20
2300;DHT22;1158;48.750;9.078;2022-08-21T07:32:50;28.20;91.30
2300;DHT22;1158;48.750;9.078;2022-08-21T07:35:17;29.00;90.40
2300;DHT22;1158;48.750;9.078;2022-08-21T07:37:44;29.60;88.50
2300;DHT22;1158;48.750;9.078;2022-08-21T07:40:12;30.60;86.50
2300;DHT22;1158;48.750;9.078;2022-08-21T07:42:40;31.40;84.70
2300;DHT22;1158;48.750;9.078;2022-08-21T07:45:09;31.20;84.70
2300;DHT22;1158;48.750;9.078;2022-08-21T07:47:36;31.20;83.80
2300;DHT22;1158;48.750;9.078;2022-08-21T07:50:04;31.40;82.30
2300;DHT22;1158;48.750;9.078;2022-08-21T07:52:31;31.80;81.80
2300;DHT22;1158;48.750;9.078;2022-08-21T07:54:59;31.00;80.20
2300;DHT22;1158;48.750;9.078;2022-08-21T07:57:27;30.90;80.60
2300;DHT22;1158;48.750;9.078;2022-08-21T07:59:54;30.10;81.00
2300;DHT22;1158;48.750;9.078;2022-08-21T08:02:24;29.50;81.00
2300;DHT22;1158;48.750;9.078;2022-08-21T08:04:51;30.10;80.90
2300;DHT22;1158;48.750;9.078;2022-08-21T08:07:18;30.80;78.30
2300;DHT22;1158;48.750;9.078;2022-08-21T08:09:45;31.60;76.50
2300;DHT22;1158;48.750;9.078;2022-08-21T08:12:12;31.80;74.90
2300;DHT22;1158;48.750;9.078;2022-08-21T08:14:40;30.70;75.20
2300;DHT22;1158;48.750;9.078;2022-08-21T08:17:07;30.70;76.60
2300;DHT22;1158;48.750;9.078;2022-08-21T08:19:34;31.50;76.20
2300;DHT22;1158;48.750;9.078;2022-08-21T08:22:01;31.50;74.80
2300;DHT22;1158;48.750;9.078;2022-08-21T08:24:28;31.90;74.20
2300;DHT22;1158;48.750;9.078;2022-08-21T08:26:54;31.80;74.70
2300;DHT22;1158;48.750;9.078;2022-08-21T08:29:22;31.60;74.80
2300;DHT22;1158;48.750;9.078;2022-08-21T08:31:50;31.80;74.00
2300;DHT22;1158;48.750;9.078;2022-08-21T08:34:17;32.00;73.20
2300;DHT22;1158;48.750;9.078;2022-08-21T08:36:45;32.10;72.40
2300;DHT22;1158;48.750;9.078;2022-08-21T08:39:11;31.70;73.40
2300;DHT22;1158;48.750;9.078;2022-08-21T08:41:39;32.00;74.20
2300;DHT22;1158;48.750;9.078;2022-08-21T08:44:07;32.30;73.90
2300;DHT22;1158;48.750;9.078;2022-08-21T08:46:38;33.20;73.10
2300;DHT22;1158;48.750;9.078;2022-08-21T08:49:11;33.20;71.60
2300;DHT22;1158;48.750;9.078;2022-08-21T08:51:43;32.90;71.50
2300;DHT22;1158;48.750;9.078;2022-08-21T08:54:17;32.30;70.90
2300;DHT22;1158;48.750;9.078;2022-08-21T08:56:45;31.70;72.30
2300;DHT22;1158;48.750;9.078;2022-08-21T08:59:15;31.20;73.80
2300;DHT22;1158;48.750;9.078;2022-08-21T09:01:44;31.50;73.70
2300;DHT22;1158;48.750;9.078;2022-08-21T09:04:13;32.00;72.70
2300;DHT22;1158;48.750;9.078;2022-08-21T09:06:55;32.50;70.30
2300;DHT22;1158;48.750;9.078;2022-08-21T09:09:33;32.20;70.20
2300;DHT22;1158;48.750;9.078;2022-08-21T09:12:06;31.90;70.80
2300;DHT22;1158;48.750;9.078;2022-08-21T09:14:49;32.10;70.20
2300;DHT22;1158;48.750;9.078;2022-08-21T09:17:26;32.70;69.70
2300;DHT22;1158;48.750;9.078;2022-08-21T09:20:07;33.20;69.40
2300;DHT22;1158;48.750;9.078;2022-08-21T09:22:42;33.20;66.00
2300;DHT22;1158;48.750;9.078;2022-08-21T09:25:17;33.60;65.80
2300;DHT22;1158;48.750;9.078;2022-08-21T09:27:46;32.90;66.80
2300;DHT22;1158;48.750;9.078;2022-08-21T09:30:14;33.40;68.10
2300;DHT22;1158;48.750;9.078;2022-08-21T09:32:41;33.90;66.10
2300;DHT22;1158;48.750;9.078;2022-08-21T09:35:12;34.40;66.50
2300;DHT22;1158;48.750;9.078;2022-08-21T09:37:50;34.60;66.30
2300;DHT22;1158;48.750;9.078;2022-08-21T09:40:36;34.10;66.60
2300;DHT22;1158;48.750;9.078;2022-08-21T09:43:06;35.30;64.50
2300;DHT22;1158;48.750;9.078;2022-08-21T09:45:33;35.30;64.40
2300;DHT22;1158;48.750;9.078;2022-08-21T09:48:11;35.60;64.40
2300;DHT22;1158;48.750;9.078;2022-08-21T09:50:40;35.10;62.80
2300;DHT22;1158;48.750;9.078;2022-08-21T09:53:16;33.40;65.90
2300;DHT22;1158;48.750;9.078;2022-08-21T09:55:49;31.60;67.90
2300;DHT22;1158;48.750;9.078;2022-08-21T09:58:36;32.20;67.80
2300;DHT22;1158;48.750;9.078;2022-08-21T10:01:05;31.80;68.10
2300;DHT22;1158;48.750;9.078;2022-08-21T10:03:32;31.20;69.50
2300;DHT22;1158;48.750;9.078;2022-08-21T10:06:02;31.30;68.60
2300;DHT22;1158;48.750;9.078;2022-08-21T10:08:32;29.60;71.50
2300;DHT22;1158;48.750;9.078;2022-08-21T10:11:04;29.30;71.30
2300;DHT22;1158;48.750;9.078;2022-08-21T10:13:49;28.30;72.80
2300;DHT22;1158;48.750;9.078;2022-08-21T10:16:30;28.10;74.30
2300;DHT22;1158;48.750;9.078;2022-08-21T10:19:12;27.60;76.20
2300;DHT22;1158;48.750;9.078;2022-08-21T10:21:51;27.60;75.90
2300;DHT22;1158;48.750;9.078;2022-08-21T10:24:25;28.20;75.20
2300;DHT22;1158;48.750;9.078;2022-08-21T10:27:18;27.60;75.70
2300;DHT22;1158;48.750;9.078;2022-08-21T10:29:51;28.60;75.00
2300;DHT22;1158;48.750;9.078;2022-08-21T10:32:42;30.00;71.20
2300;DHT22;1158;48.750;9.078;2022-08-21T10:35:13;30.60;70.30
2300;DHT22;1158;48.750;9.078;2022-08-21T10:37:57;31.20;68.10
2300;DHT22;1158;48.750;9.078;2022-08-21T10:40:29;31.20;68.60
2300;DHT22;1158;48.750;9.078;2022-08-21T10:43:08;31.40;69.40
2300;DHT22;1158;48.750;9.078;2022-08-21T10:45:49;31.30;66.10
2300;DHT22;1158;48.750;9.078;2022-08-21T10:48:24;30.10;67.30
2300;DHT22;1158;48.750;9.078;2022-08-21T10:50:55;30.80;67.70
2300;DHT22;1158;48.750;9.078;2022-08-21T10:53:45;31.10;67.50
2300;DHT22;1158;48.750;9.078;2022-08-21T10:56:17;31.10;69.10
2300;DHT22;1158;48.750;9.078;2022-08-21T10:58:53;31.30;68.50
2300;DHT22;1158;48.750;9.078;2022-08-21T11:01:27;31.50;69.10
2300;DHT22;1158;48.750;9.078;2022-08-21T11:04:09;30.80;66.40
2300;DHT22;1158;48.750;9.078;2022-08-21T11:06:39;30.20;67.50
2300;DHT22;1158;48.750;9.078;2022-08-21T11:09:12;31.60;67.60
2300;DHT22;1158;48.750;9.078;2022-08-21T11:11:42;32.80;65.80
2300;DHT22;1158;48.750;9.078;2022-08-21T11:14:19;33.10;63.20
2300;DHT22;1158;48.750;9.078;2022-08-21T11:16:53;33.20;64.60
2300;DHT22;1158;48.750;9.078;2022-08-21T11:19:28;33.10;64.60
2300;DHT22;1158;48.750;9.078;2022-08-21T11:22:00;32.60;63.20
2300;DHT22;1158;48.750;9.078;2022-08-21T11:24:41;32.10;63.20
2300;DHT22;1158;48.750;9.078;2022-08-21T11:27:23;32.70;65.80
2300;DHT22;1158;48.750;9.078;2022-08-21T11:29:54;32.00;65.60
2300;DHT22;1158;48.750;9.078;2022-08-21T11:32:37;32.10;67.30
2300;DHT22;1158;48.750;9.078;2022-08-21T11:35:12;32.50;65.90
2300;DHT22;1158;48.750;9.078;2022-08-21T11:37:52;32.70;65.60
2300;DHT22;1158;48.750;9.078;2022-08-21T11:40:34;33.00;65.00
2300;DHT22;1158;48.750;9.078;2022-08-21T11:43:08;33.20;65.40
2300;DHT22;1158;48.750;9.078;2022-08-21T11:45:43;33.10;64.70
2300;DHT22;1158;48.750;9.078;2022-08-21T11:48:20;32.10;67.10
2300;DHT22;1158;48.750;9.078;2022-08-21T11:50:50;32.50;67.00
2300;DHT22;1158;48.750;9.078;2022-08-21T11:53:22;32.60;65.40
2300;DHT22;1158;48.750;9.078;2022-08-21T11:55:55;32.30;66.40
2300;DHT22;1158;48.750;9.078;2022-08-21T11:58:25;31.50;66.90
2300;DHT22;1158;48.750;9.078;2022-08-21T12:00:55;30.10;69.10
2300;DHT22;1158;48.750;9.078;2022-08-21T12:03:26;28.70;71.10
2300;DHT22;1158;48.750;9.078;2022-08-21T12:05:55;28.20;71.80
2300;DHT22;1158;48.750;9.078;2022-08-21T12:08:29;26.80;74.90
2300;DHT22;1158;48.750;9.078;2022-08-21T12:11:04;26.00;76.70
2300;DHT22;1158;48.750;9.078;2022-08-21T12:13:33;26.40;76.90
2300;DHT22;1158;48.750;9.078;2022-08-21T12:16:07;27.10;75.70
2300;DHT22;1158;48.750;9.078;2022-08-21T12:18:35;27.50;74.90
2300;DHT22;1158;48.750;9.078;2022-08-21T12:21:16;27.90;74.30
2300;DHT22;1158;48.750;9.078;2022-08-21T12:23:45;28.00;73.20
2300;DHT22;1158;48.750;9.078;2022-08-21T12:26:27;27.90;74.40
2300;DHT22;1158;48.750;9.078;2022-08-21T12:29:16;27.80;73.90
2300;DHT22;1158;48.750;9.078;2022-08-21T12:31:51;27.90;73.10
2300;DHT22;1158;48.750;9.078;2022-08-21T12:34:20;27.90;74.30
2300;DHT22;1158;48.750;9.078;2022-08-21T12:36:54;27.90;74.60
2300;DHT22;1158;48.750;9.078;2022-08-21T12:39:24;27.60;72.80
2300;DHT22;1158;48.750;9.078;2022-08-21T12:41:57;27.60;73.50
2300;DHT22;1158;48.750;9.078;2022-08-21T12:44:35;27.70;74.00
2300;DHT22;1158;48.750;9.078;2022-08-21T12:47:06;27.40;74.80
2300;DHT22;1158;48.750;9.078;2022-08-21T12:49:47;27.70;74.10
2300;DHT22;1158;48.750;9.078;2022-08-21T12:52:21;27.80;73.90
2300;DHT22;1158;48.750;9.078;2022-08-21T12:54:48;28.50;74.90
2300;DHT22;1158;48.750;9.078;2022-08-21T12:57:22;30.30;71.30
2300;DHT22;1158;48.750;9.078;2022-08-21T12:59:54;31.60;68.20
2300;DHT22;1158;48.750;9.078;2022-08-21T13:02:23;31.60;66.80
2300;DHT22;1158;48.750;9.078;2022-08-21T13:04:52;32.50;66.00
2300;DHT22;1158;48.750;9.078;2022-08-21T13:07:25;33.30;65.50
2300;DHT22;1158;48.750;9.078;2022-08-21T13:09:57;33.50;63.70
2300;DHT22;1158;48.750;9.078;2022-08-21T13:12:27;33.90;63.20
2300;DHT22;1158;48.750;9.078;2022-08-21T13:14:57;33.90;61.80
2300;DHT22;1158;48.750;9.078;2022-08-21T13:17:25;32.60;63.20
2300;DHT22;1158;48.750;9.078;2022-08-21T13:19:55;30.90;66.20
2300;DHT22;1158;48.750;9.078;2022-08-21T13:22:23;30.00;68.10
2300;DHT22;1158;48.750;9.078;2022-08-21T13:24:50;29.90;69.60
2300;DHT22;1158;48.750;9.078;2022-08-21T13:27:22;28.90;69.60
2300;DHT22;1158;48.750;9.078;2022-08-21T13:30:02;28.60;71.40
2300;DHT22;1158;48.750;9.078;2022-08-21T13:32:31;28.80;70.90
2300;DHT22;1158;48.750;9.078;2022-08-21T13:35:06;28.80;70.60
2300;DHT22;1158;48.750;9.078;2022-08-21T13:37:34;29.10;70.80
2300;DHT22;1158;48.750;9.078;2022-08-21T13:40:02;30.90;67.70
2300;DHT22;1158;48.750;9.078;2022-08-21T13:42:32;32.10;65.90
2300;DHT22;1158;48.750;9.078;2022-08-21T13:45:01;31.50;65.60
2300;DHT22;1158;48.750;9.078;2022-08-21T13:47:27;33.20;63.30
2300;DHT22;1158;48.750;9.078;2022-08-21T13:49:54;33.60;62.10
2300;DHT22;1158;48.750;9.078;2022-08-21T13:52:23;33.90;61.90
2300;DHT22;1158;48.750;9.078;2022-08-21T13:54:55;33.30;62.30
2300;DHT22;1158;48.750;9.078;2022-08-21T13:57:26;32.50;62.70
2300;DHT22;1158;48.750;9.078;2022-08-21T14:00:11;31.60;64.90
2300;DHT22;1158;48.750;9.078;2022-08-21T14:02:40;31.40;64.00
2300;DHT22;1158;48.750;9.078;2022-08-21T14:05:15;31.50;64.30
2300;DHT22;1158;48.750;9.078;2022-08-21T14:07:43;31.90;64.20
2300;DHT22;1158;48.750;9.078;2022-08-21T14:10:13;31.70;64.60
2300;DHT22;1158;48.750;9.078;2022-08-21T14:12:43;32.40;64.50
2300;DHT22;1158;48.750;9.078;2022-08-21T14:15:13;32.40;62.60
2300;DHT22;1158;48.750;9.078;2022-08-21T14:17:41;32.60;62.90
2300;DHT22;1158;48.750;9.078;2022-08-21T14:20:11;33.50;61.10
2300;DHT22;1158;48.750;9.078;2022-08-21T14:22:40;33.90;61.10
2300;DHT22;1158;48.750;9.078;2022-08-21T14:25:11;34.80;59.60
2300;DHT22;1158;48.750;9.078;2022-08-21T14:27:43;35.00;59.20
2300;DHT22;1158;48.750;9.078;2022-08-21T14:30:18;34.70;59.50
2300;DHT22;1158;48.750;9.078;2022-08-21T14:32:45;33.80;59.50
2300;DHT22;1158;48.750;9.078;2022-08-21T14:35:12;34.40;59.50
2300;DHT22;1158;48.750;9.078;2022-08-21T14:37:42;35.50;58.30
2300;DHT22;1158;48.750;9.078;2022-08-21T14:40:10;35.60;57.80
2300;DHT22;1158;48.750;9.078;2022-08-21T14:42:38;36.20;57.70
2300;DHT22;1158;48.750;9.078;2022-08-21T14:45:13;36.40;56.60
2300;DHT22;1158;48.750;9.078;2022-08-21T14:47:40;35.00;57.50
2300;DHT22;1158;48.750;9.078;2022-08-21T14:50:08;33.60;58.30
2300;DHT22;1158;48.750;9.078;2022-08-21T14:52:35;32.00;60.70
2300;DHT22;1158;48.750;9.078;2022-08-21T14:55:03;31.20;61.50
2300;DHT22;1158;48.750;9.078;2022-08-21T14:57:30;29.90;64.50
2300;DHT22;1158;48.750;9.078;2022-08-21T14:59:57;29.70;64.70
2300;DHT22;1158;48.750;9.078;2022-08-21T15:02:26;29.50;65.20
2300;DHT22;1158;48.750;9.078;2022-08-21T15:04:53;29.30;66.00
2300;DHT22;1158;48.750;9.078;2022-08-21T15:07:19;29.10;65.40
2300;DHT22;1158;48.750;9.078;2022-08-21T15:09:46;28.80;65.00
2300;DHT22;1158;48.750;9.078;2022-08-21T15:12:13;28.40;66.60
2300;DHT22;1158;48.750;9.078;2022-08-21T15:14:40;28.20;66.70
2300;DHT22;1158;48.750;9.078;2022-08-21T15:17:09;28.10;66.90
2300;DHT22;1158;48.750;9.078;2022-08-21T15:19:37;28.00;68.10
2300;DHT22;1158;48.750;9.078;2022-08-21T15:22:04;27.70;68.00
2300;DHT22;1158;48.750;9.078;2022-08-21T15:24:32;28.20;68.10
2300;DHT22;1158;48.750;9.078;2022-08-21T15:27:00;29.70;66.90
2300;DHT22;1158;48.750;9.078;2022-08-21T15:29:27;31.00;63.20
2300;DHT22;1158;48.750;9.078;2022-08-21T15:31:56;32.10;62.00
2300;DHT22;1158;48.750;9.078;2022-08-21T15:34:24;32.50;59.90
2300;DHT22;1158;48.750;9.078;2022-08-21T15:36:55;32.00;59.80
2300;DHT22;1158;48.750;9.078;2022-08-21T15:39:21;31.60;60.90
2300;DHT22;1158;48.750;9.078;2022-08-21T15:41:48;31.20;60.80
2300;DHT22;1158;48.750;9.078;2022-08-21T15:44:16;30.60;61.50
2300;DHT22;1158;48.750;9.078;2022-08-21T15:46:43;31.50;61.10
2300;DHT22;1158;48.750;9.078;2022-08-21T15:49:11;31.80;61.40
2300;DHT22;1158;48.750;9.078;2022-08-21T15:51:37;32.60;60.10
2300;DHT22;1158;48.750;9.078;2022-08-21T15:54:05;32.40;58.40
2300;DHT22;1158;48.750;9.078;2022-08-21T15:56:35;31.40;59.10
2300;DHT22;1158;48.750;9.078;2022-08-21T15:59:05;30.30;60.30
2300;DHT22;1158;48.750;9.078;2022-08-21T16:01:33;29.00;62.60
2300;DHT22;1158;48.750;9.078;2022-08-21T16:04:02;28.20;64.50
2300;DHT22;1158;48.750;9.078;2022-08-21T16:06:29;27.60;65.00
2300;DHT22;1158;48.750;9.078;2022-08-21T16:08:55;27.50;66.50
2300;DHT22;1158;48.750;9.078;2022-08-21T16:11:23;27.20;67.10
2300;DHT22;1158;48.750;9.078;2022-08-21T16:13:50;26.90;68.20
2300;DHT22;1158;48.750;9.078;2022-08-21T16:16:20;26.90;69.10
2300;DHT22;1158;48.750;9.078;2022-08-21T16:18:48;26.90;68.30